sensor_id;sensor_type;location;lat;lon;timestamp;temperature;humidity
11136;DHT22;5622;50.840;4.948;2023-06-04T00:00:13;14.60;80.20
11136;DHT22;5622;50.840;4.948;2023-06-04T00:02:41;14.50;80.60
11136;DHT22;5622;50.840;4.948;2023-06-04T00:05:09;14.50;80.70
11136;DHT22;5622;50.840;4.948;2023-06-04T00:07:36;14.60;81.50
11136;DHT22;5622;50.840;4.948;2023-06-04T00:10:04;14.50;81.70
11136;DHT22;5622;50.840;4.948;2023-06-04T00:12:32;14.40;81.70
11136;DHT22;5622;50.840;4.948;2023-06-04T00:14:59;14.40;81.60
11136;DHT22;5622;50.840;4.948;2023-06-04T00:17:26;14.40;81.40
11136;DHT22;5622;50.840;4.948;2023-06-04T00:23:16;13.90;81.30
11136;DHT22;5622;50.840;4.948;2023-06-04T00:25:43;14.40;81.50
11136;DHT22;5622;50.840;4.948;2023-06-04T00:28:10;14.50;81.90
11136;DHT22;5622;50.840;4.948;2023-06-04T00:30:38;14.50;81.60
11136;DHT22;5622;50.840;4.948;2023-06-04T00:33:05;14.50;81.50
11136;DHT22;5622;50.840;4.948;2023-06-04T00:35:32;14.50;81.90
11136;DHT22;5622;50.840;4.948;2023-06-04T00:38:00;14.40;82.70
11136;DHT22;5622;50.840;4.948;2023-06-04T00:40:28;14.30;82.70
11136;DHT22;5622;50.840;4.948;2023-06-04T00:42:55;14.30;82.40
11136;DHT22;5622;50.840;4.948;2023-06-04T00:45:23;14.30;81.90
11136;DHT22;5622;50.840;4.948;2023-06-04T00:47:51;14.30;82.00
11136;DHT22;5622;50.840;4.948;2023-06-04T00:50:18;14.30;81.80
11136;DHT22;5622;50.840;4.948;2023-06-04T00:52:47;14.30;81.60
11136;DHT22;5622;50.840;4.948;2023-06-04T00:55:15;14.30;82.00
11136;DHT22;5622;50.840;4.948;2023-06-04T00:57:45;14.30;81.30
11136;DHT22;5622;50.840;4.948;2023-06-04T01:00:13;14.30;81.90
11136;DHT22;5622;50.840;4.948;2023-06-04T01:02:41;14.20;82.50
11136;DHT22;5622;50.840;4.948;2023-06-04T01:05:14;14.30;82.80
11136;DHT22;5622;50.840;4.948;2023-06-04T01:07:45;14.20;82.50
11136;DHT22;5622;50.840;4.948;2023-06-04T01:10:12;14.20;83.00
11136;DHT22;5622;50.840;4.948;2023-06-04T01:12:40;14.20;82.70
11136;DHT22;5622;50.840;4.948;2023-06-04T01:15:10;14.20;82.50
11136;DHT22;5622;50.840;4.948;2023-06-04T01:17:41;14.10;82.00
11136;DHT22;5622;50.840;4.948;2023-06-04T01:20:22;14.10;81.60
11136;DHT22;5622;50.840;4.948;2023-06-04T01:23:01;14.50;82.70
11136;DHT22;5622;50.840;4.948;2023-06-04T01:25:34;14.10;82.90
11136;DHT22;5622;50.840;4.948;2023-06-04T01:28:04;14.10;82.50
11136;DHT22;5622;50.840;4.948;2023-06-04T01:30:34;14.10;82.10
11136;DHT22;5622;50.840;4.948;2023-06-04T01:33:02;14.10;82.30
11136;DHT22;5622;50.840;4.948;2023-06-04T01:35:30;14.10;82.30
11136;DHT22;5622;50.840;4.948;2023-06-04T01:37:58;14.10;82.50
11136;DHT22;5622;50.840;4.948;2023-06-04T01:40:25;14.10;82.20
11136;DHT22;5622;50.840;4.948;2023-06-04T01:42:52;14.00;81.10
11136;DHT22;5622;50.840;4.948;2023-06-04T01:45:20;14.00;80.40
11136;DHT22;5622;50.840;4.948;2023-06-04T01:47:50;14.00;81.00
11136;DHT22;5622;50.840;4.948;2023-06-04T01:50:18;14.00;81.20
11136;DHT22;5622;50.840;4.948;2023-06-04T01:52:45;14.00;81.40
11136;DHT22;5622;50.840;4.948;2023-06-04T01:55:13;14.00;80.80
11136;DHT22;5622;50.840;4.948;2023-06-04T01:57:41;13.90;80.30
11136;DHT22;5622;50.840;4.948;2023-06-04T02:00:11;13.90;81.20
11136;DHT22;5622;50.840;4.948;2023-06-04T02:02:38;13.80;80.80
11136;DHT22;5622;50.840;4.948;2023-06-04T02:05:08;13.80;81.50
11136;DHT22;5622;50.840;4.948;2023-06-04T02:07:36;13.80;81.30
11136;DHT22;5622;50.840;4.948;2023-06-04T02:10:04;13.80;81.60
11136;DHT22;5622;50.840;4.948;2023-06-04T02:12:32;13.80;82.00
11136;DHT22;5622;50.840;4.948;2023-06-04T02:14:59;13.70;81.50
11136;DHT22;5622;50.840;4.948;2023-06-04T02:17:26;13.70;81.30
11136;DHT22;5622;50.840;4.948;2023-06-04T02:19:53;13.70;81.30
11136;DHT22;5622;50.840;4.948;2023-06-04T02:22:24;13.70;80.80
11136;DHT22;5622;50.840;4.948;2023-06-04T02:24:52;13.60;80.70
11136;DHT22;5622;50.840;4.948;2023-06-04T02:27:19;13.60;80.90
11136;DHT22;5622;50.840;4.948;2023-06-04T02:29:46;13.60;81.40
11136;DHT22;5622;50.840;4.948;2023-06-04T02:32:13;13.50;81.60
11136;DHT22;5622;50.840;4.948;2023-06-04T02:34:40;13.50;81.60
11136;DHT22;5622;50.840;4.948;2023-06-04T02:37:07;13.50;81.60
11136;DHT22;5622;50.840;4.948;2023-06-04T02:39:36;13.60;81.80
11136;DHT22;5622;50.840;4.948;2023-06-04T02:42:03;13.50;81.40
11136;DHT22;5622;50.840;4.948;2023-06-04T02:44:30;13.50;82.10
11136;DHT22;5622;50.840;4.948;2023-06-04T02:46:58;13.40;82.70
11136;DHT22;5622;50.840;4.948;2023-06-04T02:49:25;13.40;82.60
11136;DHT22;5622;50.840;4.948;2023-06-04T02:51:52;13.40;82.80
11136;DHT22;5622;50.840;4.948;2023-06-04T02:54:19;13.40;82.00
11136;DHT22;5622;50.840;4.948;2023-06-04T02:56:47;13.40;81.50
11136;DHT22;5622;50.840;4.948;2023-06-04T02:59:15;13.40;81.50
11136;DHT22;5622;50.840;4.948;2023-06-04T03:01:42;13.30;81.30
11136;DHT22;5622;50.840;4.948;2023-06-04T03:04:09;13.30;81.10
11136;DHT22;5622;50.840;4.948;2023-06-04T03:06:41;13.30;81.10
11136;DHT22;5622;50.840;4.948;2023-06-04T03:09:10;13.30;81.30
11136;DHT22;5622;50.840;4.948;2023-06-04T03:11:38;13.30;81.00
11136;DHT22;5622;50.840;4.948;2023-06-04T03:14:06;13.20;81.30
11136;DHT22;5622;50.840;4.948;2023-06-04T03:16:33;13.20;82.20
11136;DHT22;5622;50.840;4.948;2023-06-04T03:19:00;13.20;82.90
11136;DHT22;5622;50.840;4.948;2023-06-04T03:21:28;13.20;83.00
11136;DHT22;5622;50.840;4.948;2023-06-04T03:23:55;13.20;83.20
11136;DHT22;5622;50.840;4.948;2023-06-04T03:26:22;13.10;82.90
11136;DHT22;5622;50.840;4.948;2023-06-04T03:28:50;13.10;83.30
11136;DHT22;5622;50.840;4.948;2023-06-04T03:31:19;13.10;83.70
11136;DHT22;5622;50.840;4.948;2023-06-04T03:33:46;13.10;84.10
11136;DHT22;5622;50.840;4.948;2023-06-04T03:36:13;13.10;84.90
11136;DHT22;5622;50.840;4.948;2023-06-04T03:38:42;13.00;85.50
11136;DHT22;5622;50.840;4.948;2023-06-04T03:41:11;13.00;85.40
11136;DHT22;5622;50.840;4.948;2023-06-04T03:43:39;13.00;85.00
11136;DHT22;5622;50.840;4.948;2023-06-04T03:46:06;13.00;84.80
11136;DHT22;5622;50.840;4.948;2023-06-04T03:48:34;13.00;85.30
11136;DHT22;5622;50.840;4.948;2023-06-04T03:51:01;13.00;85.70
11136;DHT22;5622;50.840;4.948;2023-06-04T03:53:28;13.00;86.20
11136;DHT22;5622;50.840;4.948;2023-06-04T03:55:55;12.90;86.40
11136;DHT22;5622;50.840;4.948;2023-06-04T03:58:22;12.90;86.80
11136;DHT22;5622;50.840;4.948;2023-06-04T04:00:49;12.90;86.90
11136;DHT22;5622;50.840;4.948;2023-06-04T04:03:17;12.90;87.00
11136;DHT22;5622;50.840;4.948;2023-06-04T04:05:45;12.90;87.30
11136;DHT22;5622;50.840;4.948;2023-06-04T04:08:12;12.90;88.10
11136;DHT22;5622;50.840;4.948;2023-06-04T04:10:41;12.90;89.00
11136;DHT22;5622;50.840;4.948;2023-06-04T04:13:08;12.90;89.30
11136;DHT22;5622;50.840;4.948;2023-06-04T04:15:35;12.80;89.70
11136;DHT22;5622;50.840;4.948;2023-06-04T04:18:03;12.80;90.00
11136;DHT22;5622;50.840;4.948;2023-06-04T04:20:33;12.80;90.30
11136;DHT22;5622;50.840;4.948;2023-06-04T04:23:02;12.80;90.60
11136;DHT22;5622;50.840;4.948;2023-06-04T04:25:29;12.80;91.10
11136;DHT22;5622;50.840;4.948;2023-06-04T04:27:58;12.80;91.50
11136;DHT22;5622;50.840;4.948;2023-06-04T04:30:26;12.80;91.80
11136;DHT22;5622;50.840;4.948;2023-06-04T04:32:54;12.80;92.00
11136;DHT22;5622;50.840;4.948;2023-06-04T04:35:22;12.80;92.10
11136;DHT22;5622;50.840;4.948;2023-06-04T04:37:49;12.80;92.30
11136;DHT22;5622;50.840;4.948;2023-06-04T04:40:17;12.80;92.60
11136;DHT22;5622;50.840;4.948;2023-06-04T04:42:45;12.80;92.70
11136;DHT22;5622;50.840;4.948;2023-06-04T04:45:12;12.80;92.90
11136;DHT22;5622;50.840;4.948;2023-06-04T04:47:39;12.90;93.40
11136;DHT22;5622;50.840;4.948;2023-06-04T04:50:07;12.90;93.70
11136;DHT22;5622;50.840;4.948;2023-06-04T04:52:34;12.90;94.00
11136;DHT22;5622;50.840;4.948;2023-06-04T04:55:01;12.90;94.20
11136;DHT22;5622;50.840;4.948;2023-06-04T04:57:30;12.90;94.60
11136;DHT22;5622;50.840;4.948;2023-06-04T04:59:57;12.90;95.00
11136;DHT22;5622;50.840;4.948;2023-06-04T05:02:24;12.90;95.00
11136;DHT22;5622;50.840;4.948;2023-06-04T05:04:51;12.90;95.10
11136;DHT22;5622;50.840;4.948;2023-06-04T05:07:18;12.90;95.30
11136;DHT22;5622;50.840;4.948;2023-06-04T05:09:47;13.00;95.60
11136;DHT22;5622;50.840;4.948;2023-06-04T05:12:14;13.00;96.00
11136;DHT22;5622;50.840;4.948;2023-06-04T05:14:43;13.00;96.30
11136;DHT22;5622;50.840;4.948;2023-06-04T05:17:10;13.00;96.60
11136;DHT22;5622;50.840;4.948;2023-06-04T05:19:38;13.00;97.20
11136;DHT22;5622;50.840;4.948;2023-06-04T05:22:05;13.10;97.60
11136;DHT22;5622;50.840;4.948;2023-06-04T05:24:32;13.10;97.70
11136;DHT22;5622;50.840;4.948;2023-06-04T05:26:59;13.10;97.80
11136;DHT22;5622;50.840;4.948;2023-06-04T05:29:29;13.20;98.00
11136;DHT22;5622;50.840;4.948;2023-06-04T05:31:57;13.20;98.20
11136;DHT22;5622;50.840;4.948;2023-06-04T05:34:24;13.20;98.30
11136;DHT22;5622;50.840;4.948;2023-06-04T05:36:52;13.30;98.50
11136;DHT22;5622;50.840;4.948;2023-06-04T05:39:19;13.30;98.70
11136;DHT22;5622;50.840;4.948;2023-06-04T05:41:49;13.30;99.00
11136;DHT22;5622;50.840;4.948;2023-06-04T05:44:16;13.40;99.10
11136;DHT22;5622;50.840;4.948;2023-06-04T05:46:43;13.40;99.30
11136;DHT22;5622;50.840;4.948;2023-06-04T05:49:12;13.50;99.60
11136;DHT22;5622;50.840;4.948;2023-06-04T05:51:39;13.50;99.90
11136;DHT22;5622;50.840;4.948;2023-06-04T05:54:06;13.60;99.90
11136;DHT22;5622;50.840;4.948;2023-06-04T05:56:33;13.60;99.90
11136;DHT22;5622;50.840;4.948;2023-06-04T05:59:01;13.60;99.90
11136;DHT22;5622;50.840;4.948;2023-06-04T06:01:28;13.70;99.90
11136;DHT22;5622;50.840;4.948;2023-06-04T06:03:55;13.70;99.90
11136;DHT22;5622;50.840;4.948;2023-06-04T06:06:23;13.70;99.90
11136;DHT22;5622;50.840;4.948;2023-06-04T06:08:50;13.80;99.90
11136;DHT22;5622;50.840;4.948;2023-06-04T06:11:18;13.80;99.90
11136;DHT22;5622;50.840;4.948;2023-06-04T06:13:45;13.90;99.90
11136;DHT22;5622;50.840;4.948;2023-06-04T06:16:12;13.90;99.90
11136;DHT22;5622;50.840;4.948;2023-06-04T06:18:39;14.00;99.90
11136;DHT22;5622;50.840;4.948;2023-06-04T06:21:06;14.00;99.90
11136;DHT22;5622;50.840;4.948;2023-06-04T06:23:35;14.10;99.90
11136;DHT22;5622;50.840;4.948;2023-06-04T06:26:02;14.10;99.90
11136;DHT22;5622;50.840;4.948;2023-06-04T06:28:33;14.20;99.90
11136;DHT22;5622;50.840;4.948;2023-06-04T06:31:01;14.20;99.90
11136;DHT22;5622;50.840;4.948;2023-06-04T06:33:28;14.30;99.90
11136;DHT22;5622;50.840;4.948;2023-06-04T06:35:57;14.30;99.90
11136;DHT22;5622;50.840;4.948;2023-06-04T06:38:25;14.40;99.90
11136;DHT22;5622;50.840;4.948;2023-06-04T06:40:54;14.50;99.90
11136;DHT22;5622;50.840;4.948;2023-06-04T06:43:22;14.50;99.90
11136;DHT22;5622;50.840;4.948;2023-06-04T06:45:49;14.50;99.60
11136;DHT22;5622;50.840;4.948;2023-06-04T06:48:16;14.60;99.60
11136;DHT22;5622;50.840;4.948;2023-06-04T06:50:46;14.60;99.50
11136;DHT22;5622;50.840;4.948;2023-06-04T06:53:14;14.80;99.70
11136;DHT22;5622;50.840;4.948;2023-06-04T06:55:41;14.80;99.90
11136;DHT22;5622;50.840;4.948;2023-06-04T06:58:09;14.90;99.90
11136;DHT22;5622;50.840;4.948;2023-06-04T07:00:37;15.00;99.80
11136;DHT22;5622;50.840;4.948;2023-06-04T07:03:04;15.10;99.90
11136;DHT22;5622;50.840;4.948;2023-06-04T07:05:31;15.20;99.70
11136;DHT22;5622;50.840;4.948;2023-06-04T07:07:58;15.40;99.80
11136;DHT22;5622;50.840;4.948;2023-06-04T07:10:26;15.60;99.90
11136;DHT22;5622;50.840;4.948;2023-06-04T07:12:53;15.80;98.60
11136;DHT22;5622;50.840;4.948;2023-06-04T07:15:22;16.10;98.30
11136;DHT22;5622;50.840;4.948;2023-06-04T07:17:49;16.30;98.00
11136;DHT22;5622;50.840;4.948;2023-06-04T07:20:16;16.60;98.60
11136;DHT22;5622;50.840;4.948;2023-06-04T07:22:43;16.80;98.00
11136;DHT22;5622;50.840;4.948;2023-06-04T07:25:10;17.00;98.40
11136;DHT22;5622;50.840;4.948;2023-06-04T07:27:38;17.30;97.40
11136;DHT22;5622;50.840;4.948;2023-06-04T07:30:06;17.50;95.60
11136;DHT22;5622;50.840;4.948;2023-06-04T07:32:35;17.70;96.10
11136;DHT22;5622;50.840;4.948;2023-06-04T07:35:03;18.00;94.50
11136;DHT22;5622;50.840;4.948;2023-06-04T07:37:30;18.20;94.20
11136;DHT22;5622;50.840;4.948;2023-06-04T07:39:57;18.40;95.40
11136;DHT22;5622;50.840;4.948;2023-06-04T07:42:24;18.60;93.60
11136;DHT22;5622;50.840;4.948;2023-06-04T07:44:51;18.80;93.60
11136;DHT22;5622;50.840;4.948;2023-06-04T07:47:18;19.00;92.60
11136;DHT22;5622;50.840;4.948;2023-06-04T07:49:47;19.20;92.20
11136;DHT22;5622;50.840;4.948;2023-06-04T07:52:14;19.40;91.00
11136;DHT22;5622;50.840;4.948;2023-06-04T07:54:42;19.60;91.40
11136;DHT22;5622;50.840;4.948;2023-06-04T07:57:09;19.70;90.00
11136;DHT22;5622;50.840;4.948;2023-06-04T07:59:36;19.80;91.30
11136;DHT22;5622;50.840;4.948;2023-06-04T08:02:04;19.90;89.70
11136;DHT22;5622;50.840;4.948;2023-06-04T08:04:31;20.10;90.50
11136;DHT22;5622;50.840;4.948;2023-06-04T08:07:00;20.20;90.80
11136;DHT22;5622;50.840;4.948;2023-06-04T08:09:27;20.30;89.90
11136;DHT22;5622;50.840;4.948;2023-06-04T08:11:54;20.30;90.60
11136;DHT22;5622;50.840;4.948;2023-06-04T08:14:21;20.50;88.50
11136;DHT22;5622;50.840;4.948;2023-06-04T08:16:50;20.60;90.00
11136;DHT22;5622;50.840;4.948;2023-06-04T08:19:17;20.80;88.40
11136;DHT22;5622;50.840;4.948;2023-06-04T08:21:44;21.00;88.50
11136;DHT22;5622;50.840;4.948;2023-06-04T08:24:14;21.20;86.70
11136;DHT22;5622;50.840;4.948;2023-06-04T08:26:41;21.40;85.30
11136;DHT22;5622;50.840;4.948;2023-06-04T08:29:08;21.60;85.20
11136;DHT22;5622;50.840;4.948;2023-06-04T08:31:35;21.80;86.50
11136;DHT22;5622;50.840;4.948;2023-06-04T08:34:05;22.00;84.70
11136;DHT22;5622;50.840;4.948;2023-06-04T08:36:32;22.00;81.10
11136;DHT22;5622;50.840;4.948;2023-06-04T08:38:59;22.20;80.00
11136;DHT22;5622;50.840;4.948;2023-06-04T08:41:30;22.30;81.40
11136;DHT22;5622;50.840;4.948;2023-06-04T08:44:01;22.50;80.90
11136;DHT22;5622;50.840;4.948;2023-06-04T08:46:32;22.70;81.20
11136;DHT22;5622;50.840;4.948;2023-06-04T08:49:01;22.80;81.90
11136;DHT22;5622;50.840;4.948;2023-06-04T08:51:28;23.00;77.90
11136;DHT22;5622;50.840;4.948;2023-06-04T08:54:01;23.20;76.40
11136;DHT22;5622;50.840;4.948;2023-06-04T08:56:29;23.20;76.70
11136;DHT22;5622;50.840;4.948;2023-06-04T08:59:00;23.30;75.60
11136;DHT22;5622;50.840;4.948;2023-06-04T09:01:28;23.40;72.10
11136;DHT22;5622;50.840;4.948;2023-06-04T09:03:55;23.60;72.00
11136;DHT22;5622;50.840;4.948;2023-06-04T09:06:24;23.80;74.20
11136;DHT22;5622;50.840;4.948;2023-06-04T09:08:54;23.90;73.50
11136;DHT22;5622;50.840;4.948;2023-06-04T09:11:24;24.10;71.20
11136;DHT22;5622;50.840;4.948;2023-06-04T09:13:57;24.20;72.40
11136;DHT22;5622;50.840;4.948;2023-06-04T09:16:25;24.30;69.30
11136;DHT22;5622;50.840;4.948;2023-06-04T09:18:53;24.40;67.40
11136;DHT22;5622;50.840;4.948;2023-06-04T09:21:21;24.50;69.90
11136;DHT22;5622;50.840;4.948;2023-06-04T09:23:48;24.60;66.50
11136;DHT22;5622;50.840;4.948;2023-06-04T09:26:15;24.70;64.80
11136;DHT22;5622;50.840;4.948;2023-06-04T09:28:42;24.80;66.70
11136;DHT22;5622;50.840;4.948;2023-06-04T09:31:13;24.90;68.40
11136;DHT22;5622;50.840;4.948;2023-06-04T09:33:45;25.00;66.00
11136;DHT22;5622;50.840;4.948;2023-06-04T09:36:12;25.10;64.70
11136;DHT22;5622;50.840;4.948;2023-06-04T09:38:40;25.20;64.50
11136;DHT22;5622;50.840;4.948;2023-06-04T09:41:11;25.30;62.80
11136;DHT22;5622;50.840;4.948;2023-06-04T09:43:38;25.20;62.00
11136;DHT22;5622;50.840;4.948;2023-06-04T09:46:12;25.30;61.60
11136;DHT22;5622;50.840;4.948;2023-06-04T09:48:40;25.30;61.70
11136;DHT22;5622;50.840;4.948;2023-06-04T09:51:09;25.40;60.80
11136;DHT22;5622;50.840;4.948;2023-06-04T09:53:36;25.40;58.80
11136;DHT22;5622;50.840;4.948;2023-06-04T09:56:05;25.60;59.80
11136;DHT22;5622;50.840;4.948;2023-06-04T09:58:33;25.40;58.50
11136;DHT22;5622;50.840;4.948;2023-06-04T10:01:05;25.50;59.70
11136;DHT22;5622;50.840;4.948;2023-06-04T10:03:35;25.60;57.50
11136;DHT22;5622;50.840;4.948;2023-06-04T10:06:04;25.60;58.20
11136;DHT22;5622;50.840;4.948;2023-06-04T10:08:32;25.70;58.80
11136;DHT22;5622;50.840;4.948;2023-06-04T10:11:01;25.90;55.70
11136;DHT22;5622;50.840;4.948;2023-06-04T10:13:31;25.60;58.00
11136;DHT22;5622;50.840;4.948;2023-06-04T10:16:01;25.60;61.80
11136;DHT22;5622;50.840;4.948;2023-06-04T10:18:29;25.60;58.60
11136;DHT22;5622;50.840;4.948;2023-06-04T10:20:58;25.40;59.10
11136;DHT22;5622;50.840;4.948;2023-06-04T10:23:26;25.30;57.60
11136;DHT22;5622;50.840;4.948;2023-06-04T10:25:57;25.10;55.80
11136;DHT22;5622;50.840;4.948;2023-06-04T10:28:25;24.90;56.20
11136;DHT22;5622;50.840;4.948;2023-06-04T10:30:53;24.80;54.50
11136;DHT22;5622;50.840;4.948;2023-06-04T10:33:21;24.60;55.90
11136;DHT22;5622;50.840;4.948;2023-06-04T10:35:54;24.30;55.60
11136;DHT22;5622;50.840;4.948;2023-06-04T10:38:22;24.10;56.10
11136;DHT22;5622;50.840;4.948;2023-06-04T10:40:50;23.90;55.00
11136;DHT22;5622;50.840;4.948;2023-06-04T10:43:18;23.80;55.20
11136;DHT22;5622;50.840;4.948;2023-06-04T10:45:45;23.60;53.80
11136;DHT22;5622;50.840;4.948;2023-06-04T10:48:13;23.50;55.10
11136;DHT22;5622;50.840;4.948;2023-06-04T10:50:51;23.50;58.10
11136;DHT22;5622;50.840;4.948;2023-06-04T10:53:19;23.60;58.90
11136;DHT22;5622;50.840;4.948;2023-06-04T10:55:49;23.80;62.70
11136;DHT22;5622;50.840;4.948;2023-06-04T10:58:16;24.10;56.90
11136;DHT22;5622;50.840;4.948;2023-06-04T11:00:47;24.30;57.40
11136;DHT22;5622;50.840;4.948;2023-06-04T11:03:15;24.60;55.60
11136;DHT22;5622;50.840;4.948;2023-06-04T11:05:44;24.70;53.80
11136;DHT22;5622;50.840;4.948;2023-06-04T11:08:12;24.90;57.00
11136;DHT22;5622;50.840;4.948;2023-06-04T11:10:41;25.00;56.10
11136;DHT22;5622;50.840;4.948;2023-06-04T11:13:10;25.10;54.70
11136;DHT22;5622;50.840;4.948;2023-06-04T11:15:39;25.00;53.40
11136;DHT22;5622;50.840;4.948;2023-06-04T11:18:06;24.90;52.60
11136;DHT22;5622;50.840;4.948;2023-06-04T11:20:33;24.70;54.10
11136;DHT22;5622;50.840;4.948;2023-06-04T11:23:00;24.50;55.40
11136;DHT22;5622;50.840;4.948;2023-06-04T11:25:29;24.40;55.20
11136;DHT22;5622;50.840;4.948;2023-06-04T11:27:59;24.30;54.80
11136;DHT22;5622;50.840;4.948;2023-06-04T11:30:28;24.10;55.80
11136;DHT22;5622;50.840;4.948;2023-06-04T11:33:03;24.00;53.00
11136;DHT22;5622;50.840;4.948;2023-06-04T11:35:31;23.90;53.40
11136;DHT22;5622;50.840;4.948;2023-06-04T11:37:58;23.80;53.30
11136;DHT22;5622;50.840;4.948;2023-06-04T11:40:26;23.60;54.00
11136;DHT22;5622;50.840;4.948;2023-06-04T11:42:54;23.50;53.70
11136;DHT22;5622;50.840;4.948;2023-06-04T11:45:22;23.40;53.50
11136;DHT22;5622;50.840;4.948;2023-06-04T11:47:52;23.30;53.20
11136;DHT22;5622;50.840;4.948;2023-06-04T11:50:19;23.30;53.50
11136;DHT22;5622;50.840;4.948;2023-06-04T11:52:47;23.20;54.70
11136;DHT22;5622;50.840;4.948;2023-06-04T11:55:15;23.20;54.50
11136;DHT22;5622;50.840;4.948;2023-06-04T11:57:46;23.10;53.80
11136;DHT22;5622;50.840;4.948;2023-06-04T12:00:15;23.00;53.20
11136;DHT22;5622;50.840;4.948;2023-06-04T12:02:50;23.00;53.00
11136;DHT22;5622;50.840;4.948;2023-06-04T12:05:19;23.10;53.90
11136;DHT22;5622;50.840;4.948;2023-06-04T12:07:48;23.00;53.70
11136;DHT22;5622;50.840;4.948;2023-06-04T12:10:16;23.00;54.40
11136;DHT22;5622;50.840;4.948;2023-06-04T12:12:44;23.00;55.00
11136;DHT22;5622;50.840;4.948;2023-06-04T12:15:11;23.00;54.10
11136;DHT22;5622;50.840;4.948;2023-06-04T12:17:50;23.00;54.40
11136;DHT22;5622;50.840;4.948;2023-06-04T12:20:18;23.00;55.20
11136;DHT22;5622;50.840;4.948;2023-06-04T12:22:45;23.00;53.70
11136;DHT22;5622;50.840;4.948;2023-06-04T12:25:23;23.00;53.00
11136;DHT22;5622;50.840;4.948;2023-06-04T12:27:52;23.00;53.50
11136;DHT22;5622;50.840;4.948;2023-06-04T12:30:19;23.00;52.00
11136;DHT22;5622;50.840;4.948;2023-06-04T12:32:50;23.00;52.10
11136;DHT22;5622;50.840;4.948;2023-06-04T12:35:19;22.90;53.40
11136;DHT22;5622;50.840;4.948;2023-06-04T12:37:46;22.90;53.40
11136;DHT22;5622;50.840;4.948;2023-06-04T12:40:13;22.80;53.20
11136;DHT22;5622;50.840;4.948;2023-06-04T12:42:41;22.80;53.30
11136;DHT22;5622;50.840;4.948;2023-06-04T12:45:10;22.90;53.30
11136;DHT22;5622;50.840;4.948;2023-06-04T12:47:40;22.80;54.00
11136;DHT22;5622;50.840;4.948;2023-06-04T12:50:10;22.80;54.30
11136;DHT22;5622;50.840;4.948;2023-06-04T12:52:37;22.90;52.30
11136;DHT22;5622;50.840;4.948;2023-06-04T12:55:04;22.90;53.80
11136;DHT22;5622;50.840;4.948;2023-06-04T12:57:32;22.90;53.40
11136;DHT22;5622;50.840;4.948;2023-06-04T12:59:59;22.90;53.80
11136;DHT22;5622;50.840;4.948;2023-06-04T13:02:26;22.90;54.10
11136;DHT22;5622;50.840;4.948;2023-06-04T13:04:53;22.90;54.40
11136;DHT22;5622;50.840;4.948;2023-06-04T13:07:23;22.80;53.30
11136;DHT22;5622;50.840;4.948;2023-06-04T13:09:50;22.80;52.60
11136;DHT22;5622;50.840;4.948;2023-06-04T13:12:17;22.80;53.90
11136;DHT22;5622;50.840;4.948;2023-06-04T13:14:44;22.80;54.00
11136;DHT22;5622;50.840;4.948;2023-06-04T13:17:11;22.90;55.40
11136;DHT22;5622;50.840;4.948;2023-06-04T13:19:39;22.80;53.80
11136;DHT22;5622;50.840;4.948;2023-06-04T13:22:06;22.80;52.70
11136;DHT22;5622;50.840;4.948;2023-06-04T13:24:36;22.80;53.00
11136;DHT22;5622;50.840;4.948;2023-06-04T13:27:03;22.80;53.10
11136;DHT22;5622;50.840;4.948;2023-06-04T13:29:30;22.70;52.80
11136;DHT22;5622;50.840;4.948;2023-06-04T13:31:59;22.80;53.70
11136;DHT22;5622;50.840;4.948;2023-06-04T13:34:26;22.80;53.30
11136;DHT22;5622;50.840;4.948;2023-06-04T13:36:54;22.70;52.80
11136;DHT22;5622;50.840;4.948;2023-06-04T13:39:23;22.70;52.50
11136;DHT22;5622;50.840;4.948;2023-06-04T13:41:52;22.70;53.30
11136;DHT22;5622;50.840;4.948;2023-06-04T13:44:20;22.80;53.30
11136;DHT22;5622;50.840;4.948;2023-06-04T13:46:51;22.70;53.10
11136;DHT22;5622;50.840;4.948;2023-06-04T13:49:18;22.80;53.20
11136;DHT22;5622;50.840;4.948;2023-06-04T13:51:46;22.80;51.60
11136;DHT22;5622;50.840;4.948;2023-06-04T13:54:13;22.90;50.70
11136;DHT22;5622;50.840;4.948;2023-06-04T13:56:40;22.80;48.90
11136;DHT22;5622;50.840;4.948;2023-06-04T13:59:08;22.90;50.60
11136;DHT22;5622;50.840;4.948;2023-06-04T14:01:35;22.80;49.90
11136;DHT22;5622;50.840;4.948;2023-06-04T14:04:03;22.90;50.40
11136;DHT22;5622;50.840;4.948;2023-06-04T14:06:32;22.80;51.20
11136;DHT22;5622;50.840;4.948;2023-06-04T14:09:01;22.80;49.90
11136;DHT22;5622;50.840;4.948;2023-06-04T14:11:28;22.70;49.70
11136;DHT22;5622;50.840;4.948;2023-06-04T14:13:55;22.70;49.80
11136;DHT22;5622;50.840;4.948;2023-06-04T14:16:24;22.70;50.50
11136;DHT22;5622;50.840;4.948;2023-06-04T14:18:51;22.70;50.20
11136;DHT22;5622;50.840;4.948;2023-06-04T14:21:18;22.70;49.90
11136;DHT22;5622;50.840;4.948;2023-06-04T14:23:46;22.70;49.70
11136;DHT22;5622;50.840;4.948;2023-06-04T14:26:15;22.70;49.90
11136;DHT22;5622;50.840;4.948;2023-06-04T14:28:43;22.70;50.20
11136;DHT22;5622;50.840;4.948;2023-06-04T14:31:10;22.70;50.80
11136;DHT22;5622;50.840;4.948;2023-06-04T14:33:39;22.70;51.90
11136;DHT22;5622;50.840;4.948;2023-06-04T14:36:06;22.70;50.80
11136;DHT22;5622;50.840;4.948;2023-06-04T14:38:33;22.70;49.80
11136;DHT22;5622;50.840;4.948;2023-06-04T14:41:00;22.70;49.80
11136;DHT22;5622;50.840;4.948;2023-06-04T14:43:27;22.70;49.80
11136;DHT22;5622;50.840;4.948;2023-06-04T14:45:54;22.70;49.70
11136;DHT22;5622;50.840;4.948;2023-06-04T14:48:21;22.70;48.10
11136;DHT22;5622;50.840;4.948;2023-06-04T17:13:33;22.40;46.30
11136;DHT22;5622;50.840;4.948;2023-06-04T17:16:02;22.20;46.20
11136;DHT22;5622;50.840;4.948;2023-06-04T17:18:31;22.30;45.80
11136;DHT22;5622;50.840;4.948;2023-06-04T17:20:59;22.30;45.40
11136;DHT22;5622;50.840;4.948;2023-06-04T17:23:32;22.30;45.70
11136;DHT22;5622;50.840;4.948;2023-06-04T17:25:59;22.20;46.30
11136;DHT22;5622;50.840;4.948;2023-06-04T17:28:27;22.20;46.60
11136;DHT22;5622;50.840;4.948;2023-06-04T17:30:59;22.20;47.40
11136;DHT22;5622;50.840;4.948;2023-06-04T17:33:27;22.20;47.20
11136;DHT22;5622;50.840;4.948;2023-06-04T17:35:54;22.20;47.80
11136;DHT22;5622;50.840;4.948;2023-06-04T17:38:22;22.10;48.20
11136;DHT22;5622;50.840;4.948;2023-06-04T17:40:49;22.10;49.30
11136;DHT22;5622;50.840;4.948;2023-06-04T17:43:16;22.00;49.20
11136;DHT22;5622;50.840;4.948;2023-06-04T17:45:50;22.00;50.00
11136;DHT22;5622;50.840;4.948;2023-06-04T17:52:10;22.00;49.20
11136;DHT22;5622;50.840;4.948;2023-06-04T17:54:52;21.90;49.10
11136;DHT22;5622;50.840;4.948;2023-06-04T17:57:36;21.80;49.00
11136;DHT22;5622;50.840;4.948;2023-06-04T18:00:20;21.90;49.10
11136;DHT22;5622;50.840;4.948;2023-06-04T18:03:12;21.90;50.80
11136;DHT22;5622;50.840;4.948;2023-06-04T18:06:02;21.90;50.60
11136;DHT22;5622;50.840;4.948;2023-06-04T18:09:34;21.60;50.00
11136;DHT22;5622;50.840;4.948;2023-06-04T18:12:15;21.70;51.60
11136;DHT22;5622;50.840;4.948;2023-06-04T18:14:42;21.70;51.50
11136;DHT22;5622;50.840;4.948;2023-06-04T18:17:12;21.70;51.80
11136;DHT22;5622;50.840;4.948;2023-06-04T18:19:46;21.70;51.20
11136;DHT22;5622;50.840;4.948;2023-06-04T18:22:38;21.60;51.50